sensor_id;sensor_type;location;lat;lon;timestamp;pressure;altitude;pressure_sealevel;temperature;humidity
39449;BME280;25151;45.566;9.382;2023-03-24T00:00:06;99745.97;;;20.38;56.79
39449;BME280;25151;45.566;9.382;2023-03-24T00:03:12;99751.56;;;20.38;57.09
39449;BME280;25151;45.566;9.382;2023-03-24T00:06:18;99750.78;;;20.37;56.82
39449;BME280;25151;45.566;9.382;2023-03-24T00:09:28;99750.47;;;20.35;57.04
39449;BME280;25151;45.566;9.382;2023-03-24T00:12:34;99762.44;;;20.36;56.82
39449;BME280;25151;45.566;9.382;2023-03-24T00:15:38;99756.50;;;20.34;57.01
39449;BME280;25151;45.566;9.382;2023-03-24T00:18:40;99758.97;;;20.32;56.86
39449;BME280;25151;45.566;9.382;2023-03-24T00:21:43;99766.13;;;20.33;56.80
39449;BME280;25151;45.566;9.382;2023-03-24T00:24:46;99767.38;;;20.32;57.14
39449;BME280;25151;45.566;9.382;2023-03-24T00:27:52;99764.56;;;20.32;57.11
39449;BME280;25151;45.566;9.382;2023-03-24T00:30:53;99768.47;;;20.34;56.98
39449;BME280;25151;45.566;9.382;2023-03-24T00:33:56;99762.09;;;20.34;56.79
39449;BME280;25151;45.566;9.382;2023-03-24T00:36:58;99754.16;;;20.32;56.98
39449;BME280;25151;45.566;9.382;2023-03-24T00:39:58;99758.63;;;20.30;57.08
39449;BME280;25151;45.566;9.382;2023-03-24T00:43:00;99754.25;;;20.29;56.84
39449;BME280;25151;45.566;9.382;2023-03-24T00:46:03;99748.97;;;20.31;56.96
39449;BME280;25151;45.566;9.382;2023-03-24T00:49:06;99750.22;;;20.30;57.13
39449;BME280;25151;45.566;9.382;2023-03-24T00:55:14;99745.88;;;20.29;56.80
39449;BME280;25151;45.566;9.382;2023-03-24T00:58:18;99744.31;;;20.28;57.09
39449;BME280;25151;45.566;9.382;2023-03-24T01:01:27;99740.72;;;20.27;57.00
39449;BME280;25151;45.566;9.382;2023-03-24T01:04:35;99743.06;;;20.29;57.12
39449;BME280;25151;45.566;9.382;2023-03-24T01:07:38;99730.72;;;20.26;57.14
39449;BME280;25151;45.566;9.382;2023-03-24T01:10:49;99733.66;;;20.23;57.19
39449;BME280;25151;45.566;9.382;2023-03-24T01:13:53;99737.22;;;20.23;56.78
39449;BME280;25151;45.566;9.382;2023-03-24T01:16:55;99729.63;;;20.24;57.05
39449;BME280;25151;45.566;9.382;2023-03-24T01:19:57;99727.94;;;20.26;57.06
39449;BME280;25151;45.566;9.382;2023-03-24T01:22:59;99726.50;;;20.22;56.93
39449;BME280;25151;45.566;9.382;2023-03-24T01:26:07;99719.31;;;20.21;57.07
39449;BME280;25151;45.566;9.382;2023-03-24T01:29:09;99710.94;;;20.21;56.97
39449;BME280;25151;45.566;9.382;2023-03-24T01:32:11;99711.25;;;20.23;57.15
39449;BME280;25151;45.566;9.382;2023-03-24T01:35:12;99715.63;;;20.24;56.79
39449;BME280;25151;45.566;9.382;2023-03-24T01:38:15;99703.31;;;20.21;57.06
39449;BME280;25151;45.566;9.382;2023-03-24T01:41:16;99691.44;;;20.17;56.84
39449;BME280;25151;45.566;9.382;2023-03-24T01:47:27;99694.25;;;20.17;56.91
39449;BME280;25151;45.566;9.382;2023-03-24T01:50:28;99693.78;;;20.19;57.16
39449;BME280;25151;45.566;9.382;2023-03-24T01:53:32;99696.25;;;20.17;57.12
39449;BME280;25151;45.566;9.382;2023-03-24T01:56:39;99686.97;;;20.20;57.07
39449;BME280;25151;45.566;9.382;2023-03-24T01:59:44;99683.50;;;20.16;56.87
39449;BME280;25151;45.566;9.382;2023-03-24T02:02:49;99677.09;;;20.15;57.03
39449;BME280;25151;45.566;9.382;2023-03-24T02:05:54;99677.91;;;20.16;57.11
39449;BME280;25151;45.566;9.382;2023-03-24T02:08:58;99677.91;;;20.16;56.99
39449;BME280;25151;45.566;9.382;2023-03-24T02:12:00;99685.06;;;20.17;57.19
39449;BME280;25151;45.566;9.382;2023-03-24T02:15:03;99673.09;;;20.16;56.97
39449;BME280;25151;45.566;9.382;2023-03-24T02:18:11;99679.47;;;20.17;57.19
39449;BME280;25151;45.566;9.382;2023-03-24T02:26:11;99673.88;;;20.17;56.94
39449;BME280;25151;45.566;9.382;2023-03-24T02:46:25;99646.09;;;20.09;56.92
39449;BME280;25151;45.566;9.382;2023-03-24T02:49:46;99648.91;;;20.09;57.20
39449;BME280;25151;45.566;9.382;2023-03-24T02:52:59;99651.25;;;20.11;56.92
39449;BME280;25151;45.566;9.382;2023-03-24T02:59:37;99637.25;;;20.11;57.24
39449;BME280;25151;45.566;9.382;2023-03-24T03:02:44;99644.53;;;20.08;56.91
39449;BME280;25151;45.566;9.382;2023-03-24T03:06:13;99632.56;;;20.08;57.21
39449;BME280;25151;45.566;9.382;2023-03-24T03:09:18;99632.44;;;20.11;57.04
39449;BME280;25151;45.566;9.382;2023-03-24T03:12:22;99633.34;;;20.08;57.09
39449;BME280;25151;45.566;9.382;2023-03-24T03:15:38;99625.25;;;20.10;57.19
39449;BME280;25151;45.566;9.382;2023-03-24T03:19:10;99622.59;;;20.07;56.87
39449;BME280;25151;45.566;9.382;2023-03-24T03:22:22;99624.59;;;20.06;57.02
39449;BME280;25151;45.566;9.382;2023-03-24T03:25:28;99622.16;;;20.08;57.15
39449;BME280;25151;45.566;9.382;2023-03-24T03:28:35;99613.41;;;20.06;57.08
39449;BME280;25151;45.566;9.382;2023-03-24T03:31:41;99614.97;;;20.07;57.00
39449;BME280;25151;45.566;9.382;2023-03-24T03:35:14;99611.84;;;20.05;57.23
39449;BME280;25151;45.566;9.382;2023-03-24T03:38:54;99605.47;;;20.05;56.93
39449;BME280;25151;45.566;9.382;2023-03-24T03:41:56;99607.38;;;20.08;56.90
39449;BME280;25151;45.566;9.382;2023-03-24T03:44:58;99599.88;;;20.05;57.21
39449;BME280;25151;45.566;9.382;2023-03-24T03:48:01;99604.69;;;20.04;57.20
39449;BME280;25151;45.566;9.382;2023-03-24T03:51:02;99591.78;;;20.07;57.08
39449;BME280;25151;45.566;9.382;2023-03-24T03:54:10;99596.28;;;20.04;57.00
39449;BME280;25151;45.566;9.382;2023-03-24T03:57:13;99601.88;;;20.04;57.06
39449;BME280;25151;45.566;9.382;2023-03-24T04:00:19;99601.13;;;20.04;57.23
39449;BME280;25151;45.566;9.382;2023-03-24T04:07:11;99592.25;;;20.05;57.21
39449;BME280;25151;45.566;9.382;2023-03-24T04:20:26;99592.72;;;20.04;57.14
39449;BME280;25151;45.566;9.382;2023-03-24T04:33:18;99619.91;;;20.03;57.16
39449;BME280;25151;45.566;9.382;2023-03-24T04:36:29;99615.53;;;20.02;56.84
39449;BME280;25151;45.566;9.382;2023-03-24T04:39:36;99617.56;;;20.02;57.09
39449;BME280;25151;45.566;9.382;2023-03-24T04:42:48;99629.22;;;20.00;57.14
39449;BME280;25151;45.566;9.382;2023-03-24T04:45:54;99623.63;;;20.00;56.88
39449;BME280;25151;45.566;9.382;2023-03-24T04:48:59;99622.38;;;20.01;57.25
39449;BME280;25151;45.566;9.382;2023-03-24T04:52:03;99625.19;;;20.01;56.98
39449;BME280;25151;45.566;9.382;2023-03-24T04:58:20;99620.03;;;20.00;57.33
39449;BME280;25151;45.566;9.382;2023-03-24T05:01:22;99620.03;;;20.00;57.23
39449;BME280;25151;45.566;9.382;2023-03-24T05:04:29;99629.66;;;19.99;57.04
39449;BME280;25151;45.566;9.382;2023-03-24T05:07:30;99625.75;;;19.96;57.29
39449;BME280;25151;45.566;9.382;2023-03-24T05:10:33;99620.16;;;19.96;57.34
39449;BME280;25151;45.566;9.382;2023-03-24T05:13:35;99618.91;;;19.97;57.08
39449;BME280;25151;45.566;9.382;2023-03-24T05:16:36;99625.75;;;19.96;57.15
39449;BME280;25151;45.566;9.382;2023-03-24T05:19:37;99617.34;;;19.96;57.24
39449;BME280;25151;45.566;9.382;2023-03-24T05:22:38;99618.56;;;19.95;57.09
39449;BME280;25151;45.566;9.382;2023-03-24T05:25:39;99636.03;;;19.99;57.20
39449;BME280;25151;45.566;9.382;2023-03-24T05:28:41;99629.66;;;19.99;57.19
39449;BME280;25151;45.566;9.382;2023-03-24T05:31:44;99634.47;;;19.98;57.12
39449;BME280;25151;45.566;9.382;2023-03-24T05:34:50;99638.41;;;20.01;57.08
39449;BME280;25151;45.566;9.382;2023-03-24T05:37:51;99639.16;;;20.01;57.13
39449;BME280;25151;45.566;9.382;2023-03-24T05:40:57;99640.72;;;20.02;57.22
39449;BME280;25151;45.566;9.382;2023-03-24T05:43:58;99650.69;;;20.03;57.30
39449;BME280;25151;45.566;9.382;2023-03-24T05:46:59;99637.50;;;20.04;56.98
39449;BME280;25151;45.566;9.382;2023-03-24T05:50:01;99640.72;;;20.02;57.15
39449;BME280;25151;45.566;9.382;2023-03-24T05:53:04;99647.09;;;20.03;57.08
39449;BME280;25151;45.566;9.382;2023-03-24T05:56:06;99656.63;;;20.05;56.92
39449;BME280;25151;45.566;9.382;2023-03-24T05:59:12;99648.69;;;20.04;57.36
39449;BME280;25151;45.566;9.382;2023-03-24T06:02:14;99650.25;;;20.05;57.11
39449;BME280;25151;45.566;9.382;2023-03-24T06:05:17;99651.91;;;20.02;57.34
39449;BME280;25151;45.566;9.382;2023-03-24T06:08:21;99658.19;;;20.06;57.44
39449;BME280;25151;45.566;9.382;2023-03-24T06:11:25;99661.44;;;20.05;57.44
39449;BME280;25151;45.566;9.382;2023-03-24T06:14:27;99662.22;;;20.05;57.17
39449;BME280;25151;45.566;9.382;2023-03-24T06:17:30;99672.66;;;20.05;57.20
39449;BME280;25151;45.566;9.382;2023-03-24T06:20:31;99673.06;;;20.03;57.35
39449;BME280;25151;45.566;9.382;2023-03-24T06:23:33;99678.91;;;20.09;57.44
39449;BME280;25151;45.566;9.382;2023-03-24T06:26:35;99680.16;;;20.08;57.22
39449;BME280;25151;45.566;9.382;2023-03-24T06:29:36;99665.34;;;20.07;57.25
39449;BME280;25151;45.566;9.382;2023-03-24T06:32:37;99670.50;;;20.09;57.20
39449;BME280;25151;45.566;9.382;2023-03-24T06:35:39;99666.47;;;20.10;57.46
39449;BME280;25151;45.566;9.382;2023-03-24T06:38:42;99669.72;;;20.08;57.24
39449;BME280;25151;45.566;9.382;2023-03-24T06:41:55;99682.50;;;20.09;57.29
39449;BME280;25151;45.566;9.382;2023-03-24T06:44:57;99686.84;;;20.10;57.15
39449;BME280;25151;45.566;9.382;2023-03-24T06:47:59;99680.47;;;20.10;57.46
39449;BME280;25151;45.566;9.382;2023-03-24T06:51:02;99685.63;;;20.11;57.54
39449;BME280;25151;45.566;9.382;2023-03-24T06:54:04;99673.63;;;20.11;57.43
39449;BME280;25151;45.566;9.382;2023-03-24T06:57:07;99672.41;;;20.12;57.17
39449;BME280;25151;45.566;9.382;2023-03-24T07:00:13;99667.59;;;20.12;57.45
39449;BME280;25151;45.566;9.382;2023-03-24T07:03:22;99666.81;;;20.12;57.16
39449;BME280;25151;45.566;9.382;2023-03-24T07:06:24;99667.59;;;20.12;57.16
39449;BME280;25151;45.566;9.382;2023-03-24T07:09:25;99677.56;;;20.13;57.32
39449;BME280;25151;45.566;9.382;2023-03-24T07:12:28;99679.91;;;20.15;57.11
39449;BME280;25151;45.566;9.382;2023-03-24T07:15:31;99689.09;;;20.16;57.41
39449;BME280;25151;45.566;9.382;2023-03-24T07:18:32;99690.66;;;20.17;57.17
39449;BME280;25151;45.566;9.382;2023-03-24T07:21:33;99691.44;;;20.17;57.28
39449;BME280;25151;45.566;9.382;2023-03-24T07:24:35;99689.09;;;20.16;57.23
39449;BME280;25151;45.566;9.382;2023-03-24T07:27:36;99681.03;;;20.18;57.25
39449;BME280;25151;45.566;9.382;2023-03-24T07:30:37;99680.25;;;20.17;57.11
39449;BME280;25151;45.566;9.382;2023-03-24T07:33:38;99685.84;;;20.17;57.08
39449;BME280;25151;45.566;9.382;2023-03-24T07:36:40;99681.81;;;20.18;57.29
39449;BME280;25151;45.566;9.382;2023-03-24T07:39:42;99685.84;;;20.17;57.17
39449;BME280;25151;45.566;9.382;2023-03-24T07:42:44;99689.88;;;20.16;57.33
39449;BME280;25151;45.566;9.382;2023-03-24T07:45:47;99689.88;;;20.16;57.37
39449;BME280;25151;45.566;9.382;2023-03-24T07:48:48;99693.13;;;20.14;57.16
39449;BME280;25151;45.566;9.382;2023-03-24T07:51:51;99704.78;;;20.13;57.40
39449;BME280;25151;45.566;9.382;2023-03-24T07:54:53;99709.59;;;20.12;57.31
39449;BME280;25151;45.566;9.382;2023-03-24T07:57:55;99711.59;;;20.12;57.32
39449;BME280;25151;45.566;9.382;2023-03-24T08:01:02;99706.44;;;20.10;57.26
39449;BME280;25151;45.566;9.382;2023-03-24T08:04:10;99718.88;;;20.09;57.33
39449;BME280;25151;45.566;9.382;2023-03-24T08:07:12;99716.09;;;20.09;57.12
39449;BME280;25151;45.566;9.382;2023-03-24T08:10:16;99707.69;;;20.09;57.21
39449;BME280;25151;45.566;9.382;2023-03-24T08:13:19;99712.94;;;20.07;57.36
39449;BME280;25151;45.566;9.382;2023-03-24T08:16:22;99705.00;;;20.06;57.45
39449;BME280;25151;45.566;9.382;2023-03-24T08:19:28;99705.78;;;20.06;56.99
39449;BME280;25151;45.566;9.382;2023-03-24T08:22:35;99701.41;;;20.05;57.22
39449;BME280;25151;45.566;9.382;2023-03-24T08:25:37;99708.56;;;20.06;57.35
39449;BME280;25151;45.566;9.382;2023-03-24T08:28:39;99695.03;;;20.05;57.05
39449;BME280;25151;45.566;9.382;2023-03-24T08:31:45;99707.78;;;20.06;57.16
39449;BME280;25151;45.566;9.382;2023-03-24T08:34:53;99701.72;;;20.07;57.18
39449;BME280;25151;45.566;9.382;2023-03-24T08:37:56;99702.66;;;20.04;57.28
39449;BME280;25151;45.566;9.382;2023-03-24T08:41:00;99709.03;;;20.05;57.24
39449;BME280;25151;45.566;9.382;2023-03-24T08:44:08;99707.91;;;20.02;57.37
39449;BME280;25151;45.566;9.382;2023-03-24T08:47:15;99703.88;;;20.03;57.41
39449;BME280;25151;45.566;9.382;2023-03-24T08:50:25;99695.47;;;20.03;57.24
39449;BME280;25151;45.566;9.382;2023-03-24T08:53:29;99714.16;;;20.06;57.27
39449;BME280;25151;45.566;9.382;2023-03-24T08:56:32;99713.50;;;20.02;57.64
39449;BME280;25151;45.566;9.382;2023-03-24T08:59:34;99725.03;;;20.04;57.64
39449;BME280;25151;45.566;9.382;2023-03-24T09:02:36;99715.06;;;20.03;57.74
39449;BME280;25151;45.566;9.382;2023-03-24T09:05:39;99713.84;;;20.04;57.58
39449;BME280;25151;45.566;9.382;2023-03-24T09:08:46;99710.69;;;20.02;57.68
39449;BME280;25151;45.566;9.382;2023-03-24T09:11:51;99711.06;;;20.04;57.86
39449;BME280;25151;45.566;9.382;2023-03-24T09:14:55;99707.91;;;20.02;57.99
39449;BME280;25151;45.566;9.382;2023-03-24T09:17:57;99723.81;;;20.05;58.04
39449;BME280;25151;45.566;9.382;2023-03-24T09:21:00;99719.09;;;20.02;57.90
39449;BME280;25151;45.566;9.382;2023-03-24T09:24:03;99715.41;;;20.05;57.90
39449;BME280;25151;45.566;9.382;2023-03-24T09:27:05;99722.25;;;20.04;58.10
39449;BME280;25151;45.566;9.382;2023-03-24T09:30:07;99705.56;;;20.01;58.14
39449;BME280;25151;45.566;9.382;2023-03-24T09:33:11;99693.91;;;20.02;57.94
39449;BME280;25151;45.566;9.382;2023-03-24T09:36:13;99699.06;;;20.04;58.05
39449;BME280;25151;45.566;9.382;2023-03-24T09:39:17;99701.97;;;20.00;58.32
39449;BME280;25151;45.566;9.382;2023-03-24T09:42:23;99704.66;;;20.04;57.97
39449;BME280;25151;45.566;9.382;2023-03-24T09:45:28;99711.94;;;20.01;57.80
39449;BME280;25151;45.566;9.382;2023-03-24T09:52:08;99710.69;;;20.02;58.20
39449;BME280;25151;45.566;9.382;2023-03-24T09:55:20;99701.53;;;20.02;58.07
39449;BME280;25151;45.566;9.382;2023-03-24T09:58:28;99700.41;;;19.99;58.22
39449;BME280;25151;45.566;9.382;2023-03-24T10:01:34;99701.53;;;20.02;58.19
39449;BME280;25151;45.566;9.382;2023-03-24T10:04:37;99698.41;;;20.00;58.03
39449;BME280;25151;45.566;9.382;2023-03-24T10:10:58;99711.94;;;20.01;58.07
39449;BME280;25151;45.566;9.382;2023-03-24T10:14:26;99710.81;;;19.99;58.00
39449;BME280;25151;45.566;9.382;2023-03-24T10:20:55;99704.00;;;20.00;57.90
39449;BME280;25151;45.566;9.382;2023-03-24T10:24:21;99694.78;;;19.99;57.98
39449;BME280;25151;45.566;9.382;2023-03-24T10:27:58;99694.94;;;19.96;57.77
39449;BME280;25151;45.566;9.382;2023-03-24T10:31:04;99691.31;;;19.95;57.85
39449;BME280;25151;45.566;9.382;2023-03-24T10:34:13;99688.53;;;19.95;57.73
39449;BME280;25151;45.566;9.382;2023-03-24T10:37:27;99697.28;;;19.97;57.94
39449;BME280;25151;45.566;9.382;2023-03-24T10:40:54;99694.13;;;19.95;57.86
39449;BME280;25151;45.566;9.382;2023-03-24T10:44:08;99685.72;;;19.95;57.93
39449;BME280;25151;45.566;9.382;2023-03-24T10:47:23;99681.72;;;19.96;57.72
39449;BME280;25151;45.566;9.382;2023-03-24T10:50:48;99672.19;;;19.94;57.91
39449;BME280;25151;45.566;9.382;2023-03-24T10:54:24;99683.75;;;19.96;57.89
39449;BME280;25151;45.566;9.382;2023-03-24T10:57:35;99682.16;;;19.95;57.65
39449;BME280;25151;45.566;9.382;2023-03-24T11:00:44;99684.53;;;19.96;57.78
39449;BME280;25151;45.566;9.382;2023-03-24T11:03:57;99678.56;;;19.94;57.88
39449;BME280;25151;45.566;9.382;2023-03-24T11:07:15;99675.66;;;19.98;57.92
39449;BME280;25151;45.566;9.382;2023-03-24T11:10:27;99672.09;;;19.97;57.81
39449;BME280;25151;45.566;9.382;2023-03-24T11:13:33;99666.94;;;19.96;57.69
39449;BME280;25151;45.566;9.382;2023-03-24T11:16:42;99676.13;;;19.96;57.69
39449;BME280;25151;45.566;9.382;2023-03-24T11:19:53;99675.78;;;19.94;57.82
39449;BME280;25151;45.566;9.382;2023-03-24T11:23:01;99676.13;;;19.96;57.63
39449;BME280;25151;45.566;9.382;2023-03-24T11:26:19;99672.88;;;19.98;57.82
39449;BME280;25151;45.566;9.382;2023-03-24T11:29:25;99668.16;;;19.95;57.56
39449;BME280;25151;45.566;9.382;2023-03-24T11:32:28;99665.72;;;19.97;57.55
39449;BME280;25151;45.566;9.382;2023-03-24T11:35:33;99646.56;;;19.95;57.58
39449;BME280;25151;45.566;9.382;2023-03-24T11:38:36;99655.28;;;19.97;57.69
39449;BME280;25151;45.566;9.382;2023-03-24T11:41:42;99648.91;;;19.97;57.64
39449;BME280;25151;45.566;9.382;2023-03-24T11:44:49;99647.69;;;19.98;57.58
39449;BME280;25151;45.566;9.382;2023-03-24T11:47:54;99638.16;;;19.95;57.70
39449;BME280;25151;45.566;9.382;2023-03-24T11:50:59;99626.66;;;19.93;57.81
39449;BME280;25151;45.566;9.382;2023-03-24T11:54:04;99628.09;;;19.98;57.81
39449;BME280;25151;45.566;9.382;2023-03-24T11:57:12;99632.91;;;19.97;57.83
39449;BME280;25151;45.566;9.382;2023-03-24T12:00:26;99625.75;;;19.96;57.67
39449;BME280;25151;45.566;9.382;2023-03-24T12:07:58;99626.41;;;20.00;58.09
39449;BME280;25151;45.566;9.382;2023-03-24T12:18:35;99605.13;;;20.03;58.00
39449;BME280;25151;45.566;9.382;2023-03-24T12:21:40;99596.84;;;19.99;57.84
39449;BME280;25151;45.566;9.382;2023-03-24T12:25:21;99588.78;;;20.01;57.84
39449;BME280;25151;45.566;9.382;2023-03-24T12:28:51;99579.50;;;20.04;57.83
39449;BME280;25151;45.566;9.382;2023-03-24T12:39:14;99567.06;;;20.05;58.19
39449;BME280;25151;45.566;9.382;2023-03-24T12:42:25;99554.97;;;20.08;58.16
39449;BME280;25151;45.566;9.382;2023-03-24T12:49:20;99558.09;;;20.10;57.68
39449;BME280;25151;45.566;9.382;2023-03-24T12:56:23;99550.34;;;20.14;57.84
39449;BME280;25151;45.566;9.382;2023-03-24T12:59:44;99545.53;;;20.15;57.73
39449;BME280;25151;45.566;9.382;2023-03-24T13:03:10;99538.06;;;20.12;57.98
39449;BME280;25151;45.566;9.382;2023-03-24T13:06:29;99526.41;;;20.13;57.74
39449;BME280;25151;45.566;9.382;2023-03-24T13:09:54;99528.28;;;20.17;57.59
39449;BME280;25151;45.566;9.382;2023-03-24T13:13:30;99520.34;;;20.15;57.61
39449;BME280;25151;45.566;9.382;2023-03-24T13:16:36;99511.03;;;20.18;57.57
39449;BME280;25151;45.566;9.382;2023-03-24T13:19:54;99503.09;;;20.17;57.72
39449;BME280;25151;45.566;9.382;2023-03-24T13:33:19;99489.28;;;20.22;57.27
39449;BME280;25151;45.566;9.382;2023-03-24T13:39:31;99483.25;;;20.24;57.22
39449;BME280;25151;45.566;9.382;2023-03-24T13:42:44;99467.22;;;20.24;57.32
39449;BME280;25151;45.566;9.382;2023-03-24T13:46:02;99461.63;;;20.24;57.21
39449;BME280;25151;45.566;9.382;2023-03-24T13:49:13;99462.41;;;20.25;57.41
39449;BME280;25151;45.566;9.382;2023-03-24T13:55:39;99446.38;;;20.25;57.07
39449;BME280;25151;45.566;9.382;2023-03-24T13:58:48;99437.53;;;20.27;57.29
39449;BME280;25151;45.566;9.382;2023-03-24T14:02:19;99435.84;;;20.29;56.92
39449;BME280;25151;45.566;9.382;2023-03-24T14:08:59;99438.00;;;20.25;56.96
39449;BME280;25151;45.566;9.382;2023-03-24T14:12:08;99445.63;;;20.25;57.04
39449;BME280;25151;45.566;9.382;2023-03-24T14:15:32;99445.91;;;20.27;56.90
39449;BME280;25151;45.566;9.382;2023-03-24T14:21:38;99447.16;;;20.26;56.95
39449;BME280;25151;45.566;9.382;2023-03-24T14:24:56;99440.00;;;20.25;57.17
39449;BME280;25151;45.566;9.382;2023-03-24T14:28:20;99445.63;;;20.25;56.77
39449;BME280;25151;45.566;9.382;2023-03-24T14:31:29;99426.31;;;20.27;57.01
39449;BME280;25151;45.566;9.382;2023-03-24T14:34:33;99437.53;;;20.27;57.06
39449;BME280;25151;45.566;9.382;2023-03-24T14:37:51;99431.16;;;20.26;57.13
39449;BME280;25151;45.566;9.382;2023-03-24T14:40:59;99419.16;;;20.26;56.88
39449;BME280;25151;45.566;9.382;2023-03-24T14:44:07;99428.03;;;20.24;57.22
39449;BME280;25151;45.566;9.382;2023-03-24T14:47:09;99424.47;;;20.24;56.94
39449;BME280;25151;45.566;9.382;2023-03-24T14:50:19;99428.03;;;20.24;57.15
39449;BME280;25151;45.566;9.382;2023-03-24T14:53:24;99417.28;;;20.23;57.27
39449;BME280;25151;45.566;9.382;2023-03-24T14:56:33;99414.94;;;20.21;57.20
39449;BME280;25151;45.566;9.382;2023-03-24T15:03:09;99422.88;;;20.23;56.95
39449;BME280;25151;45.566;9.382;2023-03-24T15:06:20;99434.06;;;20.23;57.16
39449;BME280;25151;45.566;9.382;2023-03-24T15:09:25;99428.16;;;20.21;57.29
39449;BME280;25151;45.566;9.382;2023-03-24T15:12:27;99430.97;;;20.21;57.10
39449;BME280;25151;45.566;9.382;2023-03-24T15:15:29;99432.22;;;20.20;57.13
39449;BME280;25151;45.566;9.382;2023-03-24T15:18:30;99438.59;;;20.20;57.18
39449;BME280;25151;45.566;9.382;2023-03-24T15:21:49;99425.03;;;20.19;57.03
39449;BME280;25151;45.566;9.382;2023-03-24T15:24:51;99418.66;;;20.18;57.18
39449;BME280;25151;45.566;9.382;2023-03-24T15:27:54;99425.81;;;20.19;56.91
39449;BME280;25151;45.566;9.382;2023-03-24T15:30:58;99425.03;;;20.19;57.19
39449;BME280;25151;45.566;9.382;2023-03-24T15:35:10;99418.00;;;20.14;57.18
39449;BME280;25151;45.566;9.382;2023-03-24T15:37:50;99421.13;;;20.16;57.17
39449;BME280;25151;45.566;9.382;2023-03-24T15:41:04;99421.13;;;20.16;56.94
39449;BME280;25151;45.566;9.382;2023-03-24T15:44:08;99405.13;;;20.17;57.17
39449;BME280;25151;45.566;9.382;2023-03-24T15:47:24;99420.38;;;20.16;57.02
39449;BME280;25151;45.566;9.382;2023-03-24T15:50:39;99423.16;;;20.16;57.02
39449;BME280;25151;45.566;9.382;2023-03-24T15:53:55;99406.38;;;20.16;57.26
39449;BME280;25151;45.566;9.382;2023-03-24T15:57:24;99422.34;;;20.15;57.16
39449;BME280;25151;45.566;9.382;2023-03-24T16:00:36;99418.78;;;20.14;56.81
39449;BME280;25151;45.566;9.382;2023-03-24T16:03:43;99426.88;;;20.12;56.93
39449;BME280;25151;45.566;9.382;2023-03-24T16:06:52;99433.25;;;20.13;57.19
39449;BME280;25151;45.566;9.382;2023-03-24T16:09:56;99426.09;;;20.12;57.16
39449;BME280;25151;45.566;9.382;2023-03-24T16:13:20;99434.03;;;20.13;56.98
39449;BME280;25151;45.566;9.382;2023-03-24T16:16:25;99445.22;;;20.13;57.01
39449;BME280;25151;45.566;9.382;2023-03-24T16:19:31;99445.22;;;20.13;57.02
39449;BME280;25151;45.566;9.382;2023-03-24T16:22:33;99448.47;;;20.12;57.31
39449;BME280;25151;45.566;9.382;2023-03-24T16:25:35;99436.50;;;20.11;57.28
39449;BME280;25151;45.566;9.382;2023-03-24T16:28:39;99442.09;;;20.11;57.26
39449;BME280;25151;45.566;9.382;2023-03-24T16:31:40;99431.81;;;20.08;57.03
39449;BME280;25151;45.566;9.382;2023-03-24T16:34:43;99425.31;;;20.11;57.27
39449;BME280;25151;45.566;9.382;2023-03-24T16:37:46;99423.06;;;20.06;57.28
39449;BME280;25151;45.566;9.382;2023-03-24T16:40:51;99421.84;;;20.07;57.35
39449;BME280;25151;45.566;9.382;2023-03-24T16:43:53;99418.13;;;20.10;57.46
39449;BME280;25151;45.566;9.382;2023-03-24T16:46:56;99422.94;;;20.10;57.29
39449;BME280;25151;45.566;9.382;2023-03-24T16:49:58;99421.41;;;20.09;57.34
39449;BME280;25151;45.566;9.382;2023-03-24T16:53:02;99403.81;;;20.08;57.22
39449;BME280;25151;45.566;9.382;2023-03-24T16:56:05;99393.41;;;20.09;57.40
39449;BME280;25151;45.566;9.382;2023-03-24T16:59:15;99384.22;;;20.08;57.22
39449;BME280;25151;45.566;9.382;2023-03-24T17:02:35;99355.13;;;20.06;57.47
39449;BME280;25151;45.566;9.382;2023-03-24T17:05:45;99353.44;;;20.08;57.28
39449;BME280;25151;45.566;9.382;2023-03-24T17:08:49;99343.16;;;20.05;57.48
39449;BME280;25151;45.566;9.382;2023-03-24T17:11:54;99330.28;;;20.08;57.57
39449;BME280;25151;45.566;9.382;2023-03-24T17:14:57;99327.91;;;20.06;57.78
39449;BME280;25151;45.566;9.382;2023-03-24T17:18:05;99344.72;;;20.06;57.70
39449;BME280;25151;45.566;9.382;2023-03-24T17:21:18;99369.59;;;20.04;57.92
39449;BME280;25151;45.566;9.382;2023-03-24T17:24:34;99394.31;;;20.06;57.82
39449;BME280;25151;45.566;9.382;2023-03-24T17:27:37;99399.91;;;20.06;57.76
39449;BME280;25151;45.566;9.382;2023-03-24T17:30:41;99387.59;;;20.03;58.04
39449;BME280;25151;45.566;9.382;2023-03-24T17:33:44;99396.78;;;20.04;58.11
39449;BME280;25151;45.566;9.382;2023-03-24T17:36:48;99409.56;;;20.05;58.17
39449;BME280;25151;45.566;9.382;2023-03-24T17:39:51;99405.19;;;20.04;58.19
39449;BME280;25151;45.566;9.382;2023-03-24T17:42:53;99397.56;;;20.04;58.08
39449;BME280;25151;45.566;9.382;2023-03-24T17:45:59;99388.84;;;20.02;58.23
39449;BME280;25151;45.566;9.382;2023-03-24T17:49:03;99401.59;;;20.03;58.41
39449;BME280;25151;45.566;9.382;2023-03-24T17:52:06;99393.53;;;20.05;58.28
39449;BME280;25151;45.566;9.382;2023-03-24T17:55:11;99380.78;;;20.04;58.36
39449;BME280;25151;45.566;9.382;2023-03-24T17:58:16;99393.53;;;20.05;58.84
39449;BME280;25151;45.566;9.382;2023-03-24T18:01:17;99404.72;;;20.05;58.47
39449;BME280;25151;45.566;9.382;2023-03-24T18:04:23;99396.34;;;20.05;58.46
39449;BME280;25151;45.566;9.382;2023-03-24T18:07:26;99399.13;;;20.05;58.35
39449;BME280;25151;45.566;9.382;2023-03-24T18:10:33;99394.78;;;20.04;58.39
39449;BME280;25151;45.566;9.382;2023-03-24T18:13:39;99392.88;;;20.01;58.64
39449;BME280;25151;45.566;9.382;2023-03-24T18:16:48;99401.59;;;20.03;58.66
39449;BME280;25151;45.566;9.382;2023-03-24T18:19:52;99387.59;;;20.03;58.41
39449;BME280;25151;45.566;9.382;2023-03-24T18:22:54;99384.78;;;20.03;58.44
39449;BME280;25151;45.566;9.382;2023-03-24T18:26:00;99401.59;;;20.03;58.37
39449;BME280;25151;45.566;9.382;2023-03-24T18:29:05;99407.19;;;20.03;58.57
39449;BME280;25151;45.566;9.382;2023-03-24T18:32:09;99415.59;;;20.03;58.59